Time;durP1;ratioP1;P1;durP2;ratioP2;P2;SDS_P1;SDS_P2;PMS_P1;PMS_P2;Temp;Humidity;BMP_temperature;BMP_pressure;BME280_temperature;BME280_humidity;BME280_pressure;Samples;Min_cycle;Max_cycle;Signal;HPM_P1;HPM_P2
2022/08/22 00:00:15;;;;;;;0.80;0.20;;;24.20;39.60;;;;;;4929773;29;20975;-86
2022/08/22 00:02:58;;;;;;;0.40;0.20;;;24.10;39.40;;;;;;4931711;29;20426;-86
2022/08/22 00:05:53;;;;;;;0.30;0.20;;;24.20;39.40;;;;;;4923751;29;20422;-88
2022/08/22 00:08:34;;;;;;;0.30;0.10;;;24.10;40.20;;;;;;4914928;29;20421;-86
2022/08/22 00:11:20;;;;;;;0.80;0.20;;;24.10;41.60;;;;;;4920397;29;20473;-86
2022/08/22 00:13:54;;;;;;;0.20;0.20;;;23.90;43.50;;;;;;4939528;29;20452;-87
2022/08/22 00:16:36;;;;;;;1.38;0.20;;;23.70;44.30;;;;;;4918332;29;20418;-88
2022/08/22 00:19:41;;;;;;;0.20;0.20;;;23.60;44.30;;;;;;4913114;29;20474;-87
2022/08/22 00:22:24;;;;;;;0.40;0.20;;;23.50;44.60;;;;;;4916162;29;20417;-86
2022/08/22 00:25:01;;;;;;;0.20;0.10;;;23.40;44.20;;;;;;4910445;29;20492;-86
2022/08/22 00:27:36;;;;;;;0.20;0.13;;;23.50;43.60;;;;;;4924938;29;20416;-86
2022/08/22 00:30:15;;;;;;;0.88;0.20;;;23.50;44.10;;;;;;4914723;29;20429;-89
2022/08/22 00:32:49;;;;;;;0.20;0.20;;;23.40;45.10;;;;;;4904462;29;20478;-83
2022/08/22 00:35:20;;;;;;;0.20;0.20;;;23.40;45.40;;;;;;4914073;29;20414;-82
2022/08/22 00:38:01;;;;;;;0.25;0.10;;;23.30;45.60;;;;;;4907843;29;20450;-86
2022/08/22 00:40:59;;;;;;;0.60;0.20;;;23.30;47.00;;;;;;4933461;28;20434;-86
2022/08/22 00:43:47;;;;;;;0.20;0.17;;;23.10;47.70;;;;;;4928949;29;20471;-86
2022/08/22 00:46:35;;;;;;;0.40;0.20;;;23.10;47.70;;;;;;4903792;29;20426;-82
2022/08/22 00:49:21;;;;;;;0.30;0.30;;;23.00;44.60;;;;;;4907488;29;20924;-85
2022/08/22 00:51:57;;;;;;;0.47;0.20;;;23.10;43.20;;;;;;4909622;29;20411;-82
2022/08/22 00:54:53;;;;;;;0.30;0.22;;;23.30;42.70;;;;;;4935105;29;20474;-88
2022/08/22 00:57:45;;;;;;;0.22;0.20;;;23.40;42.20;;;;;;4933732;29;20443;-87
2022/08/22 01:00:22;;;;;;;0.30;0.20;;;23.40;42.40;;;;;;4933577;28;20513;-87
2022/08/22 01:03:10;;;;;;;0.20;0.10;;;23.40;43.50;;;;;;4930065;29;20430;-85
2022/08/22 01:05:43;;;;;;;0.20;0.20;;;23.50;42.20;;;;;;4933756;29;20824;-86
2022/08/22 01:08:38;;;;;;;0.20;0.20;;;23.50;42.10;;;;;;4908495;29;20454;-87
2022/08/22 01:11:07;;;;;;;0.60;0.20;;;23.50;41.90;;;;;;4919054;29;20434;-87
2022/08/22 01:13:59;;;;;;;0.20;0.20;;;23.60;41.80;;;;;;4917600;29;20419;-87
2022/08/22 01:16:57;;;;;;;0.80;0.40;;;23.60;42.00;;;;;;4920922;29;20416;-83
2022/08/22 01:19:43;;;;;;;0.70;0.30;;;23.60;41.60;;;;;;4930311;29;20411;-87
2022/08/22 01:22:47;;;;;;;0.20;0.20;;;23.60;41.50;;;;;;4937183;29;20422;-86
2022/08/22 01:25:23;;;;;;;0.38;0.20;;;23.60;41.60;;;;;;4918580;29;20497;-89
2022/08/22 01:28:15;;;;;;;0.30;0.30;;;23.50;41.90;;;;;;4922087;29;20413;-87
2022/08/22 01:31:00;;;;;;;0.30;0.20;;;23.50;42.20;;;;;;4916769;29;20438;-87
2022/08/22 01:33:46;;;;;;;1.00;0.30;;;23.50;42.20;;;;;;4934627;29;20422;-86
2022/08/22 01:36:44;;;;;;;0.33;0.23;;;23.40;42.00;;;;;;4931191;29;20494;-87
2022/08/22 01:39:29;;;;;;;0.25;0.20;;;23.50;41.90;;;;;;4904774;29;20480;-86
2022/08/22 01:42:01;;;;;;;0.30;0.20;;;23.50;41.70;;;;;;4928122;29;20494;-86
2022/08/22 01:44:40;;;;;;;0.60;0.30;;;23.50;41.80;;;;;;4919256;29;20421;-87
2022/08/22 01:47:19;;;;;;;0.40;0.28;;;23.40;42.20;;;;;;4934004;29;20485;-87
2022/08/22 01:49:56;;;;;;;0.40;0.30;;;23.40;42.20;;;;;;4913612;29;20509;-83
2022/08/22 01:52:44;;;;;;;0.98;0.20;;;23.40;42.00;;;;;;4933325;29;20423;-87
2022/08/22 01:55:19;;;;;;;0.68;0.30;;;23.40;42.10;;;;;;4925469;29;20912;-85
2022/08/22 01:57:55;;;;;;;0.50;0.30;;;23.40;42.10;;;;;;4927475;29;20421;-88
2022/08/22 02:04:00;;;;;;;0.40;0.30;;;23.30;42.40;;;;;;4935648;29;20509;-86
2022/08/22 02:06:33;;;;;;;0.50;0.30;;;23.30;42.40;;;;;;4906013;29;20424;-83
2022/08/22 02:09:03;;;;;;;1.35;0.40;;;23.30;42.60;;;;;;4934113;29;20414;-83
2022/08/22 02:12:11;;;;;;;0.75;0.30;;;23.30;42.80;;;;;;4914148;29;20762;-82
2022/08/22 02:15:05;;;;;;;0.28;0.20;;;23.30;42.80;;;;;;4884125;29;20419;-89
2022/08/22 02:18:04;;;;;;;0.50;0.30;;;23.30;42.90;;;;;;4914730;29;20488;-86
2022/08/22 02:20:51;;;;;;;0.93;0.30;;;23.30;42.70;;;;;;4938974;29;20415;-86
2022/08/22 02:23:42;;;;;;;0.45;0.20;;;23.30;42.90;;;;;;4933245;29;20489;-86
2022/08/22 02:26:26;;;;;;;0.28;0.20;;;23.20;43.00;;;;;;4915685;29;20455;-86
2022/08/22 02:29:19;;;;;;;1.02;0.30;;;23.20;43.10;;;;;;4921444;29;20407;-82
2022/08/22 02:32:15;;;;;;;0.60;0.20;;;23.30;42.90;;;;;;4936200;29;20486;-86
2022/08/22 02:34:57;;;;;;;1.00;0.30;;;23.30;42.40;;;;;;4906875;29;20428;-87
2022/08/22 02:37:45;;;;;;;0.40;0.20;;;23.40;42.60;;;;;;4913431;29;20465;-83
2022/08/22 02:40:26;;;;;;;0.82;0.30;;;23.30;42.50;;;;;;4936124;29;20473;-86
2022/08/22 02:43:08;;;;;;;0.20;0.20;;;23.40;42.40;;;;;;4918269;29;20982;-83
2022/08/22 02:45:45;;;;;;;0.60;0.40;;;23.40;42.50;;;;;;4917715;29;20934;-85
2022/08/22 02:48:28;;;;;;;1.00;0.30;;;23.40;42.50;;;;;;4920418;29;20414;-82
2022/08/22 02:51:06;;;;;;;0.80;0.30;;;23.50;42.30;;;;;;4922329;29;20426;-83
2022/08/22 02:53:45;;;;;;;1.17;0.40;;;23.50;42.30;;;;;;4924006;29;20413;-85
2022/08/22 02:56:30;;;;;;;1.00;0.30;;;23.50;42.10;;;;;;4917072;29;20420;-86
2022/08/22 02:59:26;;;;;;;0.32;0.30;;;23.60;41.80;;;;;;4937354;29;20486;-83
2022/08/22 03:01:54;;;;;;;0.93;0.30;;;23.60;41.80;;;;;;4941106;28;20417;-86
2022/08/22 03:04:45;;;;;;;0.70;0.40;;;23.60;41.70;;;;;;4925379;29;20441;-86
2022/08/22 03:07:30;;;;;;;0.63;0.40;;;23.60;42.10;;;;;;4935838;29;20473;-86
2022/08/22 03:10:28;;;;;;;0.50;0.30;;;23.60;42.20;;;;;;4929415;29;20480;-87
2022/08/22 03:13:07;;;;;;;0.50;0.30;;;23.60;42.50;;;;;;4915379;29;20556;-86
2022/08/22 03:15:42;;;;;;;0.55;0.38;;;23.60;42.80;;;;;;4918831;29;20420;-82
2022/08/22 03:18:25;;;;;;;0.33;0.27;;;23.50;42.70;;;;;;4910236;29;20481;-85
2022/08/22 03:21:08;;;;;;;0.38;0.30;;;23.50;42.80;;;;;;4936857;28;20430;-86
2022/08/22 03:23:49;;;;;;;0.77;0.30;;;23.50;42.70;;;;;;4911297;29;20466;-82
2022/08/22 03:26:31;;;;;;;0.40;0.22;;;23.50;42.60;;;;;;4908311;29;20464;-86
2022/08/22 03:29:10;;;;;;;0.80;0.40;;;23.50;42.50;;;;;;4910815;29;20443;-85
2022/08/22 03:32:08;;;;;;;1.05;0.40;;;23.50;42.80;;;;;;4916903;29;20461;-83
2022/08/22 03:34:36;;;;;;;0.80;0.30;;;23.40;42.70;;;;;;4902447;29;20448;-88
2022/08/22 03:37:41;;;;;;;0.70;0.30;;;23.40;42.90;;;;;;4910886;29;20412;-86
2022/08/22 03:40:42;;;;;;;0.40;0.30;;;23.40;43.00;;;;;;4919774;29;20517;-83
2022/08/22 03:43:36;;;;;;;0.75;0.30;;;23.30;43.10;;;;;;4931467;29;20414;-85
2022/08/22 03:46:32;;;;;;;0.85;0.32;;;23.30;43.00;;;;;;4927573;29;20421;-87
2022/08/22 03:49:36;;;;;;;0.57;0.30;;;23.30;43.50;;;;;;4913366;29;20428;-86
2022/08/22 03:53:07;;;;;;;0.68;0.40;;;23.20;43.70;;;;;;4936635;29;20429;-87
2022/08/22 03:56:21;;;;;;;0.47;0.30;;;23.10;43.50;;;;;;4937231;29;20452;-83
2022/08/22 03:59:06;;;;;;;0.77;0.38;;;23.20;43.50;;;;;;4931496;29;20418;-85
2022/08/22 04:02:06;;;;;;;0.30;0.20;;;23.10;43.70;;;;;;4921678;29;20419;-83
2022/08/22 04:04:59;;;;;;;0.40;0.30;;;23.10;44.10;;;;;;4934249;29;20486;-85
2022/08/22 04:07:50;;;;;;;2.80;0.40;;;23.00;44.30;;;;;;4936533;29;20418;-82
2022/08/22 04:10:55;;;;;;;0.63;0.40;;;23.00;44.30;;;;;;4940089;29;20425;-88
2022/08/22 04:13:51;;;;;;;0.20;0.20;;;23.00;45.50;;;;;;4933182;29;20418;-89
2022/08/22 04:16:30;;;;;;;0.47;0.20;;;22.90;46.00;;;;;;4914665;29;20414;-82
2022/08/22 04:19:08;;;;;;;2.00;0.30;;;22.90;46.40;;;;;;4937939;29;20431;-83
2022/08/22 04:22:15;;;;;;;0.93;0.20;;;22.80;46.20;;;;;;4923146;29;20432;-82
2022/08/22 04:25:05;;;;;;;0.28;0.20;;;22.80;46.60;;;;;;4906745;29;20438;-83
2022/08/22 04:28:01;;;;;;;0.57;0.20;;;22.70;46.80;;;;;;4937821;28;20546;-82
2022/08/22 04:30:56;;;;;;;0.35;0.20;;;22.70;46.80;;;;;;4933386;29;20427;-82
2022/08/22 04:34:21;;;;;;;0.28;0.20;;;22.60;47.40;;;;;;4912291;29;20835;-82
2022/08/22 04:37:03;;;;;;;0.40;0.20;;;22.50;47.30;;;;;;4829071;29;20417;-85
2022/08/22 04:39:40;;;;;;;0.30;0.20;;;22.40;49.80;;;;;;4924616;29;20470;-83
2022/08/22 04:42:20;;;;;;;0.50;0.20;;;22.20;51.10;;;;;;4906989;29;20424;-82
2022/08/22 04:45:08;;;;;;;0.38;0.20;;;22.10;52.10;;;;;;4908782;29;20763;-85
2022/08/22 04:48:04;;;;;;;0.90;0.20;;;21.80;54.20;;;;;;4902434;29;20480;-82
2022/08/22 04:50:42;;;;;;;0.50;0.20;;;21.50;55.30;;;;;;4920487;29;20445;-85
2022/08/22 04:53:46;;;;;;;0.50;0.33;;;21.40;55.70;;;;;;4928896;29;20447;-85
2022/08/22 04:56:26;;;;;;;0.80;0.20;;;21.30;55.90;;;;;;4912746;29;20447;-86
2022/08/22 04:58:58;;;;;;;0.32;0.20;;;21.10;56.50;;;;;;4917958;29;20840;-85
2022/08/22 05:01:53;;;;;;;0.25;0.20;;;21.10;57.50;;;;;;4926596;29;20413;-82
2022/08/22 05:04:30;;;;;;;0.60;0.20;;;21.00;57.80;;;;;;4912169;29;20435;-86
2022/08/22 05:07:11;;;;;;;0.40;0.30;;;20.90;58.40;;;;;;4929402;29;20446;-82
2022/08/22 05:09:42;;;;;;;0.70;0.20;;;20.80;57.90;;;;;;4935709;29;20407;-86
2022/08/22 05:12:17;;;;;;;0.40;0.20;;;20.80;58.60;;;;;;4912455;29;20416;-87
2022/08/22 05:14:50;;;;;;;0.30;0.20;;;20.70;58.80;;;;;;4914705;29;20442;-86
2022/08/22 05:17:24;;;;;;;0.40;0.20;;;20.60;59.20;;;;;;4916789;29;20434;-86
2022/08/22 05:19:55;;;;;;;0.30;0.20;;;20.60;59.50;;;;;;4934699;29;20485;-86
2022/08/22 05:22:32;;;;;;;0.98;0.20;;;20.60;60.40;;;;;;4914481;29;20789;-86
2022/08/22 05:25:04;;;;;;;0.30;0.20;;;20.50;60.80;;;;;;4932114;29;20432;-81
2022/08/22 05:27:37;;;;;;;0.32;0.20;;;20.50;60.60;;;;;;4935977;29;20832;-86
2022/08/22 05:30:12;;;;;;;0.45;0.20;;;20.40;61.00;;;;;;4912303;29;20504;-86
2022/08/22 05:33:11;;;;;;;0.40;0.20;;;20.40;61.00;;;;;;4930912;29;20447;-86
2022/08/22 05:36:07;;;;;;;0.43;0.15;;;20.40;61.00;;;;;;4911912;29;20907;-86
2022/08/22 05:38:40;;;;;;;0.40;0.20;;;20.40;61.20;;;;;;4912206;29;20410;-86
2022/08/22 05:41:12;;;;;;;0.30;0.20;;;20.40;61.10;;;;;;4916446;29;20470;-86
2022/08/22 05:43:42;;;;;;;0.20;0.20;;;20.40;60.30;;;;;;4917258;29;20411;-85
2022/08/22 05:46:21;;;;;;;0.28;0.20;;;20.40;60.00;;;;;;4915345;29;20443;-85
2022/08/22 05:48:59;;;;;;;0.22;0.20;;;20.40;60.10;;;;;;4939782;29;20514;-83
2022/08/22 05:51:36;;;;;;;0.50;0.20;;;20.40;60.10;;;;;;4922752;29;20446;-85
2022/08/22 05:54:13;;;;;;;0.40;0.20;;;20.50;60.00;;;;;;4928649;28;20464;-85
2022/08/22 05:56:48;;;;;;;0.93;0.20;;;20.60;59.70;;;;;;4933398;29;20579;-85
2022/08/22 05:59:29;;;;;;;0.32;0.30;;;20.60;59.40;;;;;;4907432;29;20484;-85
2022/08/22 06:02:08;;;;;;;0.30;0.30;;;20.70;59.50;;;;;;4907170;29;20430;-86
2022/08/22 06:04:52;;;;;;;0.90;0.20;;;20.70;59.20;;;;;;4917190;29;20422;-83
2022/08/22 06:07:24;;;;;;;2.40;0.28;;;20.80;59.10;;;;;;4916299;29;20423;-87
2022/08/22 06:10:10;;;;;;;0.38;0.20;;;20.90;60.60;;;;;;4928325;29;20486;-87
2022/08/22 06:12:49;;;;;;;0.40;0.20;;;20.90;61.80;;;;;;4932278;29;20421;-86
2022/08/22 06:15:29;;;;;;;0.37;0.23;;;20.90;62.30;;;;;;4917406;29;20417;-86
2022/08/22 06:18:03;;;;;;;1.75;0.30;;;21.00;62.40;;;;;;4918169;29;20486;-85
2022/08/22 06:20:46;;;;;;;0.50;0.20;;;21.00;62.30;;;;;;4912443;29;20416;-84
2022/08/22 06:23:18;;;;;;;0.40;0.20;;;21.00;62.80;;;;;;4913453;29;20427;-86
2022/08/22 06:25:47;;;;;;;0.90;0.30;;;21.10;62.70;;;;;;4924003;29;20425;-84
2022/08/22 06:28:22;;;;;;;0.20;0.20;;;21.10;62.00;;;;;;4913788;29;20425;-88
2022/08/22 06:30:52;;;;;;;2.13;0.20;;;21.20;61.60;;;;;;4916448;29;20430;-88
2022/08/22 06:33:26;;;;;;;0.40;0.30;;;21.20;61.40;;;;;;4910005;29;20450;-86
2022/08/22 06:38:59;;;;;;;0.40;0.30;;;21.40;62.10;;;;;;4929542;29;20509;-86
2022/08/22 06:41:29;;;;;;;0.30;0.30;;;21.50;61.50;;;;;;4912263;29;20474;-86
2022/08/22 06:43:58;;;;;;;0.60;0.40;;;21.60;60.80;;;;;;4912002;29;20495;-85
2022/08/22 06:46:28;;;;;;;1.20;0.50;;;21.80;60.00;;;;;;4933183;29;20474;-87
2022/08/22 06:48:58;;;;;;;0.80;0.60;;;21.90;57.00;;;;;;4917548;29;20413;-88
2022/08/22 06:51:27;;;;;;;1.10;0.60;;;22.00;55.40;;;;;;4944056;29;20794;-85
2022/08/22 06:54:00;;;;;;;1.10;0.60;;;22.20;54.60;;;;;;4940828;28;20512;-86
2022/08/22 06:56:49;;;;;;;1.73;0.60;;;22.30;53.00;;;;;;4932767;29;20460;-84
2022/08/22 06:59:22;;;;;;;1.20;0.50;;;22.40;52.00;;;;;;4920252;29;20474;-85
2022/08/22 07:02:15;;;;;;;0.68;0.40;;;22.50;51.10;;;;;;4914798;29;20489;-88
2022/08/22 07:04:42;;;;;;;0.90;0.50;;;22.70;50.50;;;;;;4919800;29;20440;-83
2022/08/22 07:07:09;;;;;;;1.50;0.50;;;22.80;50.80;;;;;;4929102;28;20425;-82
2022/08/22 07:09:39;;;;;;;0.70;0.50;;;22.90;50.60;;;;;;4922854;29;20459;-87
2022/08/22 07:12:19;;;;;;;1.10;0.60;;;23.00;50.50;;;;;;4912269;29;20432;-82
2022/08/22 07:14:50;;;;;;;1.42;0.52;;;23.10;50.00;;;;;;4924045;29;20474;-86
2022/08/22 07:17:22;;;;;;;0.73;0.50;;;23.20;49.60;;;;;;4945674;29;20464;-86
2022/08/22 07:20:27;;;;;;;1.17;0.60;;;23.40;49.70;;;;;;4918209;29;21112;-83
2022/08/22 07:23:03;;;;;;;2.53;0.60;;;23.50;49.00;;;;;;4920238;29;20406;-82
2022/08/22 07:25:32;;;;;;;1.88;0.60;;;23.70;48.30;;;;;;4918229;29;20780;-86
2022/08/22 07:28:21;;;;;;;0.90;0.57;;;23.90;47.60;;;;;;4909720;29;20416;-86
2022/08/22 07:31:29;;;;;;;1.50;0.50;;;24.00;47.30;;;;;;4896503;29;20469;-87
2022/08/22 07:34:12;;;;;;;0.80;0.40;;;24.20;47.00;;;;;;4895193;29;20435;-86
2022/08/22 07:37:11;;;;;;;1.20;0.40;;;24.40;46.40;;;;;;4911961;29;20422;-84
2022/08/22 07:40:05;;;;;;;0.80;0.40;;;24.50;46.60;;;;;;4903544;29;20817;-85
2022/08/22 07:42:41;;;;;;;1.50;0.40;;;24.70;45.90;;;;;;4899534;29;20412;-87
2022/08/22 07:45:16;;;;;;;1.53;0.53;;;24.90;45.80;;;;;;4906783;29;20436;-86
2022/08/22 07:47:43;;;;;;;0.77;0.40;;;25.20;45.10;;;;;;4900180;29;20902;-85
2022/08/22 07:50:27;;;;;;;1.30;0.50;;;25.40;45.40;;;;;;4905654;29;20436;-87
2022/08/22 07:52:59;;;;;;;0.63;0.30;;;25.70;44.70;;;;;;4898273;29;20463;-87
2022/08/22 07:55:27;;;;;;;0.45;0.30;;;25.90;44.50;;;;;;4916304;29;20476;-87
2022/08/22 07:58:02;;;;;;;0.80;0.30;;;26.00;42.60;;;;;;4913670;29;20417;-86
2022/08/22 08:00:31;;;;;;;0.80;0.50;;;26.20;42.20;;;;;;4900780;29;20895;-87
2022/08/22 08:03:02;;;;;;;0.55;0.40;;;26.30;43.10;;;;;;4919496;29;20464;-81
2022/08/22 08:05:33;;;;;;;1.08;0.50;;;26.50;43.10;;;;;;4918703;29;20962;-81
2022/08/22 08:08:07;;;;;;;1.00;0.40;;;26.50;42.20;;;;;;4896153;29;20473;-82
2022/08/22 08:10:39;;;;;;;1.15;0.43;;;26.60;42.10;;;;;;4910091;29;20444;-86
2022/08/22 08:13:12;;;;;;;0.40;0.30;;;26.80;42.20;;;;;;4900912;29;20478;-86
2022/08/22 08:15:43;;;;;;;1.02;0.40;;;26.90;41.20;;;;;;4897197;29;20431;-85
2022/08/22 08:18:18;;;;;;;1.13;0.68;;;27.10;41.30;;;;;;4915998;29;20801;-88
2022/08/22 08:21:08;;;;;;;0.52;0.40;;;27.20;41.50;;;;;;4900792;29;20420;-86
2022/08/22 08:23:39;;;;;;;0.43;0.32;;;27.10;40.80;;;;;;4904892;29;20540;-86
2022/08/22 08:26:14;;;;;;;0.80;0.30;;;27.20;41.40;;;;;;4896106;29;20487;-85
2022/08/22 08:28:47;;;;;;;1.35;0.40;;;27.30;42.10;;;;;;4912890;29;20451;-84
2022/08/22 08:31:37;;;;;;;1.60;0.40;;;27.30;42.50;;;;;;4895862;29;20481;-83
2022/08/22 08:34:20;;;;;;;1.30;0.43;;;27.40;42.00;;;;;;4899771;29;20423;-82
2022/08/22 08:37:01;;;;;;;1.20;0.40;;;27.50;42.30;;;;;;4915434;29;20455;-85
2022/08/22 08:39:28;;;;;;;1.38;0.70;;;27.60;42.90;;;;;;4915097;29;20423;-83
2022/08/22 08:42:06;;;;;;;0.80;0.40;;;27.70;42.60;;;;;;4896363;29;20444;-84
2022/08/22 08:44:39;;;;;;;0.52;0.32;;;27.60;42.70;;;;;;4892972;29;20432;-84
2022/08/22 08:47:21;;;;;;;1.03;0.40;;;27.60;42.80;;;;;;4897914;29;20456;-84
2022/08/22 08:50:05;;;;;;;1.00;0.40;;;27.70;43.00;;;;;;4891952;29;20424;-84
2022/08/22 08:52:39;;;;;;;0.50;0.40;;;27.80;42.40;;;;;;4895561;29;20845;-86
2022/08/22 08:55:12;;;;;;;1.10;0.50;;;27.90;42.90;;;;;;4909202;29;20569;-85
2022/08/22 08:58:33;;;;;;;1.00;0.50;;;28.10;43.90;;;;;;4890508;29;20824;-87
2022/08/22 09:01:27;;;;;;;1.75;0.80;;;28.20;43.70;;;;;;4910488;29;20755;-81
2022/08/22 09:04:22;;;;;;;0.55;0.35;;;28.50;43.40;;;;;;4916085;29;20476;-82
2022/08/22 09:07:15;;;;;;;1.50;0.40;;;28.60;43.20;;;;;;4917641;29;20428;-82
2022/08/22 09:10:04;;;;;;;0.80;0.40;;;28.70;42.30;;;;;;4917953;29;20971;-87
2022/08/22 09:12:40;;;;;;;1.10;0.40;;;28.70;43.30;;;;;;4902343;29;20511;-87
2022/08/22 09:15:54;;;;;;;0.55;0.40;;;28.90;42.80;;;;;;4915107;29;20846;-85
2022/08/22 09:18:34;;;;;;;1.10;0.40;;;28.90;42.60;;;;;;4913201;29;20415;-82
2022/08/22 09:21:18;;;;;;;1.40;0.47;;;29.00;41.80;;;;;;4904498;29;20423;-87
2022/08/22 09:24:18;;;;;;;0.57;0.32;;;29.00;42.40;;;;;;4912872;29;20417;-82
2022/08/22 09:27:00;;;;;;;0.57;0.30;;;29.10;42.70;;;;;;4934633;29;20784;-82
2022/08/22 09:29:41;;;;;;;0.75;0.30;;;29.30;42.50;;;;;;4909431;29;20472;-83
2022/08/22 09:32:33;;;;;;;0.70;0.50;;;29.50;40.70;;;;;;4911651;29;20525;-85
2022/08/22 09:35:31;;;;;;;0.98;0.28;;;29.60;41.10;;;;;;4914498;29;20424;-85
2022/08/22 09:38:28;;;;;;;1.70;0.22;;;29.70;41.10;;;;;;4929433;29;20839;-87
2022/08/22 09:41:07;;;;;;;0.70;0.30;;;29.90;40.90;;;;;;4934120;29;20477;-87
2022/08/22 09:43:47;;;;;;;0.77;0.20;;;30.00;39.80;;;;;;4914973;29;20461;-87
2022/08/22 09:46:18;;;;;;;1.10;0.28;;;29.90;39.20;;;;;;4915439;29;20521;-88
2022/08/22 09:49:00;;;;;;;1.35;0.30;;;29.90;39.50;;;;;;4926331;29;20424;-85
2022/08/22 09:51:54;;;;;;;1.17;0.30;;;30.20;39.40;;;;;;4906908;29;20448;-83
2022/08/22 09:55:03;;;;;;;0.43;0.30;;;30.30;39.10;;;;;;4924533;29;20828;-87
2022/08/22 09:57:46;;;;;;;0.60;0.30;;;30.40;39.10;;;;;;4891009;29;20428;-81
2022/08/22 10:00:25;;;;;;;1.05;0.30;;;30.50;38.20;;;;;;4916615;29;20428;-86
2022/08/22 10:03:05;;;;;;;0.90;0.20;;;30.60;38.40;;;;;;4908187;29;20427;-83
2022/08/22 10:05:56;;;;;;;0.70;0.40;;;30.70;38.40;;;;;;4934803;29;20510;-83
2022/08/22 10:09:09;;;;;;;0.70;0.20;;;30.80;38.20;;;;;;4919175;29;20455;-83
2022/08/22 10:11:59;;;;;;;0.52;0.30;;;31.10;37.40;;;;;;4933105;29;20500;-85
2022/08/22 10:14:47;;;;;;;1.00;0.32;;;31.10;37.30;;;;;;4934037;29;20442;-84
2022/08/22 10:17:29;;;;;;;0.47;0.20;;;31.00;36.90;;;;;;4927895;29;20803;-83
2022/08/22 10:20:20;;;;;;;0.90;0.40;;;31.00;37.20;;;;;;4934734;29;20469;-85
2022/08/22 10:22:56;;;;;;;0.40;0.20;;;31.00;36.40;;;;;;4911143;29;20518;-85
2022/08/22 10:25:48;;;;;;;1.35;0.20;;;30.90;36.30;;;;;;4929362;29;20951;-85
2022/08/22 10:28:20;;;;;;;1.05;0.20;;;31.10;36.30;;;;;;4929676;29;20417;-83
2022/08/22 10:31:07;;;;;;;1.00;0.30;;;31.20;35.50;;;;;;4909092;29;20471;-81
2022/08/22 10:34:10;;;;;;;0.30;0.20;;;31.10;35.10;;;;;;4903472;29;20759;-85
2022/08/22 10:37:03;;;;;;;2.33;0.40;;;31.30;36.10;;;;;;4878304;29;20454;-84
2022/08/22 10:39:46;;;;;;;0.30;0.20;;;31.40;34.90;;;;;;4932614;29;20418;-84
2022/08/22 10:42:40;;;;;;;0.20;0.20;;;31.50;34.20;;;;;;4925355;29;20506;-87
2022/08/22 10:45:17;;;;;;;0.70;0.30;;;31.60;34.60;;;;;;4929648;29;20421;-83
2022/08/22 10:47:49;;;;;;;0.70;0.20;;;31.70;34.30;;;;;;4935031;29;20866;-84
2022/08/22 10:50:26;;;;;;;0.47;0.20;;;31.80;34.80;;;;;;4934433;29;20434;-86
2022/08/22 10:53:34;;;;;;;0.20;0.20;;;31.90;34.00;;;;;;4933575;29;20814;-80
2022/08/22 10:57:02;;;;;;;0.80;0.20;;;32.00;33.20;;;;;;4911431;29;20439;-87
2022/08/22 10:59:53;;;;;;;0.70;0.20;;;32.00;33.80;;;;;;4900151;29;20411;-87
2022/08/22 11:02:44;;;;;;;0.37;0.20;;;32.20;34.10;;;;;;4915962;29;20443;-86
2022/08/22 11:05:31;;;;;;;1.60;0.30;;;32.20;34.20;;;;;;4918246;29;20434;-88
2022/08/22 11:08:05;;;;;;;0.80;0.30;;;32.20;34.20;;;;;;4923409;29;20444;-89
2022/08/22 11:10:57;;;;;;;0.40;0.20;;;32.10;35.50;;;;;;4916626;29;20430;-85
2022/08/22 11:13:47;;;;;;;0.50;0.10;;;32.00;33.50;;;;;;4938350;29;20920;-85
2022/08/22 11:16:52;;;;;;;0.30;0.20;;;32.00;32.30;;;;;;4918168;29;20486;-84
2022/08/22 11:19:40;;;;;;;1.07;0.30;;;32.20;32.40;;;;;;4919543;29;20856;-89
2022/08/22 11:22:19;;;;;;;0.80;0.20;;;32.40;32.50;;;;;;4914313;29;20418;-85
2022/08/22 11:25:14;;;;;;;0.52;0.20;;;32.50;31.80;;;;;;4915336;29;20420;-89
2022/08/22 11:28:13;;;;;;;0.20;0.20;;;32.50;30.90;;;;;;4917413;29;20431;-86
2022/08/22 11:31:03;;;;;;;0.63;0.20;;;32.50;31.80;;;;;;4921399;29;20428;-89
2022/08/22 11:33:58;;;;;;;0.70;0.20;;;32.70;30.60;;;;;;4923479;29;20777;-85
2022/08/22 11:36:43;;;;;;;0.50;0.20;;;32.80;31.40;;;;;;4933339;29;20418;-85
2022/08/22 11:39:26;;;;;;;0.30;0.20;;;32.90;29.90;;;;;;4912913;28;20450;-89
2022/08/22 11:41:53;;;;;;;2.50;0.20;;;33.10;29.90;;;;;;4930420;29;20422;-89
2022/08/22 11:44:39;;;;;;;0.27;0.10;;;33.00;29.20;;;;;;4921353;29;20414;-85
2022/08/22 11:47:20;;;;;;;0.30;0.20;;;33.10;29.00;;;;;;4922159;29;20492;-86
2022/08/22 11:50:03;;;;;;;0.20;0.10;;;33.20;28.20;;;;;;4911379;29;20420;-84
2022/08/22 11:53:17;;;;;;;0.20;0.10;;;33.30;28.20;;;;;;4920492;29;20477;-88
2022/08/22 11:56:02;;;;;;;0.35;0.13;;;33.30;28.30;;;;;;4930796;29;20487;-84
2022/08/22 11:58:31;;;;;;;0.80;0.20;;;33.40;28.10;;;;;;4911710;29;20427;-86
2022/08/22 12:01:04;;;;;;;0.28;0.20;;;33.30;28.70;;;;;;4916561;29;20851;-89
2022/08/22 12:03:54;;;;;;;0.20;0.10;;;33.50;28.20;;;;;;4920561;29;20970;-85
2022/08/22 12:06:40;;;;;;;0.10;0.10;;;33.50;28.50;;;;;;4904738;29;20443;-87
2022/08/22 12:09:14;;;;;;;0.40;0.30;;;33.60;27.90;;;;;;4940752;29;20426;-86
2022/08/22 12:12:14;;;;;;;0.20;0.10;;;33.50;28.90;;;;;;4918640;29;20419;-90
2022/08/22 12:14:49;;;;;;;0.30;0.30;;;33.70;28.70;;;;;;4932779;29;20425;-84
2022/08/22 12:17:34;;;;;;;2.33;0.40;;;33.80;28.40;;;;;;4915835;29;20428;-81
2022/08/22 12:20:45;;;;;;;1.75;0.40;;;34.00;29.90;;;;;;4902718;29;20499;-82
2022/08/22 12:23:34;;;;;;;1.98;0.20;;;34.50;28.20;;;;;;4933956;29;20429;-83
2022/08/22 12:26:39;;;;;;;1.50;0.30;;;34.60;27.70;;;;;;4935173;29;20422;-83
2022/08/22 12:29:20;;;;;;;0.60;0.20;;;34.20;27.70;;;;;;4916136;29;20431;-85
2022/08/22 12:32:08;;;;;;;0.80;0.20;;;33.90;27.50;;;;;;4915152;29;20426;-82
2022/08/22 12:34:56;;;;;;;0.20;0.20;;;33.90;28.80;;;;;;4918450;29;20423;-80
2022/08/22 12:37:53;;;;;;;0.43;0.20;;;34.00;28.30;;;;;;4917044;29;20461;-84
2022/08/22 12:40:26;;;;;;;0.70;0.20;;;34.20;28.80;;;;;;4919716;29;20399;-80
2022/08/22 12:43:16;;;;;;;0.30;0.20;;;34.10;27.80;;;;;;4933231;29;20930;-84
2022/08/22 12:45:47;;;;;;;0.20;0.20;;;34.00;27.60;;;;;;4928681;29;20966;-85
2022/08/22 12:48:35;;;;;;;0.45;0.20;;;34.10;28.70;;;;;;4916642;29;20493;-86
2022/08/22 12:51:15;;;;;;;0.80;0.20;;;34.40;30.00;;;;;;4930355;29;20403;-85
2022/08/22 12:54:00;;;;;;;2.50;0.20;;;34.70;29.70;;;;;;4914238;28;20413;-86
2022/08/22 12:56:44;;;;;;;0.20;0.20;;;34.90;29.40;;;;;;4929814;29;20438;-80
2022/08/22 12:59:23;;;;;;;0.85;0.20;;;34.80;28.70;;;;;;4935284;29;20426;-86
2022/08/22 13:01:58;;;;;;;0.90;0.20;;;34.80;28.60;;;;;;4933989;29;20460;-81
2022/08/22 13:04:31;;;;;;;0.73;0.20;;;34.60;28.70;;;;;;4916041;29;20412;-85
2022/08/22 13:07:24;;;;;;;3.28;0.60;;;34.30;29.10;;;;;;4934605;29;20426;-82
2022/08/22 13:09:57;;;;;;;0.50;0.30;;;33.90;30.00;;;;;;4928145;29;20844;-88
2022/08/22 13:12:42;;;;;;;2.15;0.40;;;33.80;29.60;;;;;;4916335;29;20429;-79
2022/08/22 13:15:24;;;;;;;1.55;0.30;;;33.90;30.80;;;;;;4935969;29;20893;-81
2022/08/22 13:17:53;;;;;;;0.80;0.30;;;33.70;41.60;;;;;;4924661;29;20477;-82
2022/08/22 13:20:27;;;;;;;0.45;0.30;;;33.10;52.20;;;;;;4909138;29;20428;-86
2022/08/22 13:22:55;;;;;;;1.10;0.30;;;32.40;55.20;;;;;;4933296;29;20475;-86
2022/08/22 13:25:28;;;;;;;1.30;0.50;;;31.70;52.70;;;;;;4925888;29;20435;-86
2022/08/22 13:28:01;;;;;;;0.90;0.30;;;31.40;53.20;;;;;;4932503;29;20418;-82
2022/08/22 13:30:37;;;;;;;0.40;0.30;;;31.40;58.40;;;;;;4919692;29;21033;-82
2022/08/22 13:33:08;;;;;;;0.77;0.30;;;31.60;57.30;;;;;;4916900;29;20446;-78
2022/08/22 13:35:52;;;;;;;0.60;0.30;;;31.70;48.50;;;;;;4916292;29;20799;-82
2022/08/22 13:38:27;;;;;;;0.50;0.30;;;31.90;48.40;;;;;;4930565;28;20415;-81
2022/08/22 13:40:58;;;;;;;0.63;0.30;;;32.20;46.70;;;;;;4936718;29;20514;-81
2022/08/22 13:44:07;;;;;;;0.93;0.50;;;32.40;43.60;;;;;;4919411;29;20403;-81
2022/08/22 13:46:36;;;;;;;2.00;0.37;;;32.50;37.80;;;;;;4932308;29;20414;-81
2022/08/22 13:49:39;;;;;;;0.60;0.30;;;32.50;39.50;;;;;;4928302;29;20514;-77
2022/08/22 13:52:09;;;;;;;1.75;0.30;;;32.70;38.90;;;;;;4933310;29;20441;-79
2022/08/22 13:55:02;;;;;;;0.30;0.20;;;32.90;38.00;;;;;;4931440;29;20414;-85
2022/08/22 13:57:40;;;;;;;0.60;0.20;;;33.20;36.50;;;;;;4932079;29;20407;-86
2022/08/22 14:00:25;;;;;;;0.60;0.28;;;33.40;35.80;;;;;;4926274;29;20419;-84
2022/08/22 14:03:03;;;;;;;0.90;0.27;;;33.40;34.40;;;;;;4919886;29;20439;-81
2022/08/22 14:05:40;;;;;;;1.17;0.20;;;33.50;34.20;;;;;;4932611;29;20426;-82
2022/08/22 14:08:12;;;;;;;0.50;0.30;;;33.70;34.80;;;;;;4927280;29;20438;-85
2022/08/22 14:10:49;;;;;;;0.50;0.20;;;33.80;34.30;;;;;;4915047;29;20787;-81
2022/08/22 14:13:58;;;;;;;0.73;0.30;;;34.00;33.80;;;;;;4922461;29;20432;-77
2022/08/22 14:16:31;;;;;;;0.50;0.20;;;34.40;33.70;;;;;;4899794;29;20418;-81
2022/08/22 14:19:11;;;;;;;1.20;0.30;;;34.70;33.70;;;;;;4938389;28;20498;-80